Time;durP1;ratioP1;P1;durP2;ratioP2;P2;SDS_P1;SDS_P2;PMS_P1;PMS_P2;Temp;Humidity;BMP_temperature;BMP_pressure;BME280_temperature;BME280_humidity;BME280_pressure;Samples;Min_cycle;Max_cycle;Signal;HPM_P1;HPM_P2
2022/07/14 00:02:09;;;;;;;;;;;22.90;92.80;;;;;;5096457;28;19948;-81
2022/07/14 00:04:35;;;;;;;;;;;22.80;93.50;;;;;;5096240;28;19908;-81
2022/07/14 00:07:01;;;;;;;;;;;22.80;94.00;;;;;;5095712;28;19912;-80
2022/07/14 00:09:27;;;;;;;;;;;22.70;94.70;;;;;;5096036;28;19915;-80
2022/07/14 00:11:53;;;;;;;;;;;22.70;94.80;;;;;;5095836;28;20431;-81
2022/07/14 00:14:18;;;;;;;;;;;22.70;94.50;;;;;;5096234;28;19944;-81
2022/07/14 00:16:44;;;;;;;;;;;22.60;95.40;;;;;;5096122;28;19915;-81
2022/07/14 00:19:10;;;;;;;;;;;22.30;96.50;;;;;;5095876;28;19908;-81
2022/07/14 00:21:36;;;;;;;;;;;22.40;96.50;;;;;;5095920;28;19914;-80
2022/07/14 00:24:01;;;;;;;;;;;22.30;96.80;;;;;;5095624;28;19908;-82
2022/07/14 00:26:27;;;;;;;;;;;22.30;97.50;;;;;;5095470;28;19962;-80
2022/07/14 00:28:53;;;;;;;;;;;22.20;97.70;;;;;;5095823;28;19912;-81
2022/07/14 00:31:18;;;;;;;;;;;22.30;97.60;;;;;;5095618;28;19908;-80
2022/07/14 00:33:44;;;;;;;;;;;22.30;97.30;;;;;;5095636;28;19956;-81
2022/07/14 00:36:09;;;;;;;;;;;22.20;97.70;;;;;;5095225;28;19908;-81
2022/07/14 00:38:35;;;;;;;;;;;22.10;98.60;;;;;;5095483;28;20314;-82
2022/07/14 00:41:01;;;;;;;;;;;22.10;99.60;;;;;;5095364;28;19916;-80
2022/07/14 00:43:26;;;;;;;;;;;22.20;98.80;;;;;;5095354;28;19939;-82
2022/07/14 00:45:52;;;;;;;;;;;22.10;99.60;;;;;;5095353;28;20361;-82
2022/07/14 00:48:19;;;;;;;;;;;22.00;99.90;;;;;;5076698;28;19950;-82
2022/07/14 00:50:45;;;;;;;;;;;21.80;99.90;;;;;;5095278;28;20655;-80
2022/07/14 00:53:11;;;;;;;;;;;21.80;99.90;;;;;;5095349;28;19998;-82
2022/07/14 00:55:38;;;;;;;;;;;21.70;99.90;;;;;;5095172;28;19908;-82
2022/07/14 00:58:04;;;;;;;;;;;21.60;99.90;;;;;;5094697;28;20007;-79
2022/07/14 01:00:30;;;;;;;;;;;21.50;99.90;;;;;;5094821;28;19993;-80
2022/07/14 01:02:56;;;;;;;;;;;21.70;99.90;;;;;;5095195;28;19908;-81
2022/07/14 01:05:22;;;;;;;;;;;21.60;99.90;;;;;;5076805;28;19958;-80
2022/07/14 01:07:47;;;;;;;;;;;21.60;99.90;;;;;;5080035;28;19926;-81
2022/07/14 01:10:13;;;;;;;;;;;21.50;99.90;;;;;;5074744;28;19927;-81
2022/07/14 01:12:49;;;;;;;;;;;21.40;99.90;;;;;;5073188;28;19909;-80
2022/07/14 01:15:15;;;;;;;;;;;21.60;99.90;;;;;;5074667;28;19908;-80
2022/07/14 01:17:41;;;;;;;;;;;21.60;99.90;;;;;;5074664;28;19908;-81
2022/07/14 01:20:07;;;;;;;;;;;21.60;99.90;;;;;;5074535;28;19908;-80
2022/07/14 01:22:32;;;;;;;;;;;21.60;99.90;;;;;;5074361;28;19934;-79
2022/07/14 01:24:58;;;;;;;;;;;21.60;99.90;;;;;;5074409;28;19909;-81
2022/07/14 01:27:24;;;;;;;;;;;21.60;99.90;;;;;;5073822;28;19999;-81
2022/07/14 01:29:49;;;;;;;;;;;21.60;99.90;;;;;;5074276;28;20387;-81
2022/07/14 01:32:15;;;;;;;;;;;21.40;99.90;;;;;;5074293;28;20364;-80
2022/07/14 01:34:40;;;;;;;;;;;21.50;99.90;;;;;;5074121;28;19908;-80
2022/07/14 01:37:06;;;;;;;;;;;21.60;99.90;;;;;;5073911;28;19908;-80
2022/07/14 01:39:32;;;;;;;;;;;21.60;99.90;;;;;;5074160;28;19934;-82
2022/07/14 01:41:57;;;;;;;;;;;21.70;99.90;;;;;;5073883;28;20403;-82
2022/07/14 01:44:23;;;;;;;;;;;21.70;99.90;;;;;;5074064;28;19912;-81
2022/07/14 01:46:49;;;;;;;;;;;21.70;99.90;;;;;;5073546;28;19916;-82
2022/07/14 01:49:14;;;;;;;;;;;21.70;99.90;;;;;;5073986;28;19908;-83
2022/07/14 01:51:40;;;;;;;;;;;21.60;99.90;;;;;;5073856;28;20057;-81
2022/07/14 01:54:06;;;;;;;;;;;21.70;99.90;;;;;;5073930;28;19908;-81
2022/07/14 01:56:32;;;;;;;;;;;21.70;99.90;;;;;;5073551;28;19909;-81
2022/07/14 01:59:00;;;;;;;;;;;21.50;99.90;;;;;;5073720;28;19908;-80
2022/07/14 02:01:41;;;;;;;;;;;21.60;99.90;;;;;;5073759;28;20254;-81
2022/07/14 02:04:17;;;;;;;;;;;21.60;99.90;;;;;;5073771;28;19909;-80
2022/07/14 02:06:45;;;;;;;;;;;21.60;99.90;;;;;;5073264;28;19917;-82
2022/07/14 02:09:11;;;;;;;;;;;21.40;99.90;;;;;;5055656;28;19915;-81
2022/07/14 02:14:21;;;;;;;;;;;21.30;99.90;;;;;;5073738;28;19971;-80
2022/07/14 02:16:46;;;;;;;;;;;21.20;99.90;;;;;;5073745;28;19915;-81
2022/07/14 02:19:12;;;;;;;;;;;21.20;99.90;;;;;;5073482;28;19908;-81
2022/07/14 02:21:39;;;;;;;;;;;21.00;99.90;;;;;;5073449;28;19930;-81
2022/07/14 02:24:05;;;;;;;;;;;21.00;99.90;;;;;;5072845;28;19915;-82
2022/07/14 02:26:30;;;;;;;;;;;21.30;99.90;;;;;;5073114;28;19913;-81
2022/07/14 02:28:56;;;;;;;;;;;21.30;99.90;;;;;;5073317;28;19916;-80
2022/07/14 02:31:22;;;;;;;;;;;21.50;99.90;;;;;;5073457;28;19915;-80
2022/07/14 02:33:47;;;;;;;;;;;21.50;99.90;;;;;;5073251;28;20357;-82
2022/07/14 02:36:13;;;;;;;;;;;21.40;99.90;;;;;;5072977;28;19912;-82
2022/07/14 02:38:38;;;;;;;;;;;21.40;99.90;;;;;;5072670;28;20399;-81
2022/07/14 02:41:04;;;;;;;;;;;21.40;99.90;;;;;;5073034;28;19920;-79
2022/07/14 02:43:31;;;;;;;;;;;21.30;99.90;;;;;;5073239;28;19970;-80
2022/07/14 02:45:57;;;;;;;;;;;21.20;99.90;;;;;;5073402;28;19912;-81
2022/07/14 02:48:23;;;;;;;;;;;21.20;99.90;;;;;;5072881;28;19912;-80
2022/07/14 02:50:48;;;;;;;;;;;21.20;99.90;;;;;;5073132;28;20387;-81
2022/07/14 02:53:14;;;;;;;;;;;21.10;99.90;;;;;;5073105;28;19909;-81
2022/07/14 02:55:39;;;;;;;;;;;21.10;99.90;;;;;;5073087;28;20442;-82
2022/07/14 02:58:05;;;;;;;;;;;21.10;99.90;;;;;;5072592;28;19909;-81
2022/07/14 03:00:31;;;;;;;;;;;21.00;99.90;;;;;;5072676;28;19916;-81
2022/07/14 03:02:57;;;;;;;;;;;20.90;99.90;;;;;;5073270;28;20351;-82
2022/07/14 03:05:23;;;;;;;;;;;21.00;99.90;;;;;;5073000;28;19940;-81
2022/07/14 03:07:48;;;;;;;;;;;20.90;99.90;;;;;;5072459;28;20398;-79
2022/07/14 03:10:14;;;;;;;;;;;20.80;99.90;;;;;;5072979;28;19909;-81
2022/07/14 03:12:40;;;;;;;;;;;20.70;99.90;;;;;;5072639;28;19915;-82
2022/07/14 03:15:07;;;;;;;;;;;20.70;99.90;;;;;;5072874;28;19908;-80
2022/07/14 03:17:33;;;;;;;;;;;20.70;99.90;;;;;;5055178;28;19915;-82
2022/07/14 03:19:58;;;;;;;;;;;20.60;99.90;;;;;;5072846;28;19908;-82
2022/07/14 03:22:24;;;;;;;;;;;20.40;99.90;;;;;;5072848;28;19912;-81
2022/07/14 03:24:49;;;;;;;;;;;20.40;99.90;;;;;;5072532;28;20014;-81
2022/07/14 03:27:15;;;;;;;;;;;20.40;99.90;;;;;;5072528;28;19919;-82
2022/07/14 03:29:41;;;;;;;;;;;20.50;99.90;;;;;;5072811;28;19908;-80
2022/07/14 03:32:07;;;;;;;;;;;20.50;99.90;;;;;;5054682;28;19909;-81
2022/07/14 03:34:33;;;;;;;;;;;20.40;99.90;;;;;;5072649;28;19919;-80
2022/07/14 03:36:59;;;;;;;;;;;20.20;99.90;;;;;;5076161;28;19919;-80
2022/07/14 03:39:25;;;;;;;;;;;20.10;99.90;;;;;;5076493;28;19908;-81
2022/07/14 03:41:51;;;;;;;;;;;20.10;99.90;;;;;;5076272;28;19943;-79
2022/07/14 03:44:17;;;;;;;;;;;20.20;99.90;;;;;;5076299;28;20006;-81
2022/07/14 03:46:42;;;;;;;;;;;20.00;99.90;;;;;;5076048;28;20007;-79
2022/07/14 03:49:08;;;;;;;;;;;20.10;99.90;;;;;;5076142;28;19916;-80
2022/07/14 03:51:34;;;;;;;;;;;20.10;99.90;;;;;;5076361;28;20463;-82
2022/07/14 03:54:00;;;;;;;;;;;19.80;99.90;;;;;;5076120;28;20014;-80
2022/07/14 03:56:25;;;;;;;;;;;19.50;99.90;;;;;;5076074;28;19931;-80
2022/07/14 03:58:51;;;;;;;;;;;19.40;99.90;;;;;;5057606;28;19954;-82
2022/07/14 04:01:16;;;;;;;;;;;19.60;99.90;;;;;;5076014;28;20392;-80
2022/07/14 04:03:43;;;;;;;;;;;19.90;99.90;;;;;;5076026;28;19915;-80
2022/07/14 04:06:08;;;;;;;;;;;20.00;99.90;;;;;;5075841;28;19912;-81
2022/07/14 04:08:34;;;;;;;;;;;19.90;99.90;;;;;;5075374;28;19915;-82
2022/07/14 04:10:59;;;;;;;;;;;19.90;99.90;;;;;;5075613;28;20292;-80
2022/07/14 04:13:25;;;;;;;;;;;19.60;99.90;;;;;;5075738;28;19915;-80
2022/07/14 04:15:51;;;;;;;;;;;19.50;99.90;;;;;;5075822;28;20359;-81
2022/07/14 04:18:16;;;;;;;;;;;19.50;99.90;;;;;;5075767;28;19908;-80
2022/07/14 04:20:51;;;;;;;;;;;19.70;99.90;;;;;;5075740;28;19908;-81
2022/07/14 04:23:17;;;;;;;;;;;19.80;99.90;;;;;;5075518;28;19913;-81
2022/07/14 04:25:42;;;;;;;;;;;19.80;99.90;;;;;;5075681;28;20383;-81
2022/07/14 04:28:08;;;;;;;;;;;19.80;99.90;;;;;;5075131;28;19958;-81
2022/07/14 04:30:33;;;;;;;;;;;19.80;99.90;;;;;;5075502;28;19912;-80
2022/07/14 04:32:59;;;;;;;;;;;19.80;99.90;;;;;;5075592;28;19909;-81
2022/07/14 04:35:24;;;;;;;;;;;19.80;99.90;;;;;;5075323;28;19908;-81
2022/07/14 04:37:50;;;;;;;;;;;19.80;99.90;;;;;;5075018;28;20328;-81
2022/07/14 04:40:16;;;;;;;;;;;19.90;99.90;;;;;;5075273;28;19909;-79
2022/07/14 04:42:41;;;;;;;;;;;19.90;99.90;;;;;;5075078;28;19974;-81
2022/07/14 04:45:07;;;;;;;;;;;19.90;99.90;;;;;;5075300;28;19909;-81
2022/07/14 04:47:33;;;;;;;;;;;19.90;99.90;;;;;;5056658;28;20510;-82
2022/07/14 04:52:44;;;;;;;;;;;19.80;99.90;;;;;;5074834;28;19939;-80
2022/07/14 04:55:10;;;;;;;;;;;19.90;99.90;;;;;;5075077;28;20377;-79
2022/07/14 04:57:35;;;;;;;;;;;19.80;99.90;;;;;;5080255;28;19915;-81
2022/07/14 05:00:01;;;;;;;;;;;19.80;99.90;;;;;;5095070;28;20342;-80
2022/07/14 05:02:26;;;;;;;;;;;19.80;99.90;;;;;;5095035;28;19915;-81
2022/07/14 05:04:52;;;;;;;;;;;19.90;99.90;;;;;;5095154;28;20405;-81
2022/07/14 05:07:17;;;;;;;;;;;19.90;99.90;;;;;;5094558;28;19920;-81
2022/07/14 05:09:43;;;;;;;;;;;19.90;99.90;;;;;;5095014;28;20463;-81
2022/07/14 05:12:11;;;;;;;;;;;19.90;99.90;;;;;;5094795;28;19915;-81
2022/07/14 05:14:38;;;;;;;;;;;19.80;99.90;;;;;;5094867;28;19908;-80
2022/07/14 05:17:03;;;;;;;;;;;20.00;99.90;;;;;;5094648;28;19913;-80
2022/07/14 05:19:29;;;;;;;;;;;20.10;99.90;;;;;;5077124;28;19909;-80
2022/07/14 05:21:55;;;;;;;;;;;20.10;99.90;;;;;;5095084;28;20000;-80
2022/07/14 05:24:20;;;;;;;;;;;20.10;99.90;;;;;;5094541;28;19915;-82
2022/07/14 05:26:46;;;;;;;;;;;20.20;99.90;;;;;;5094649;28;19919;-80
2022/07/14 05:29:11;;;;;;;;;;;20.20;99.90;;;;;;5094202;28;19931;-80
2022/07/14 05:31:37;;;;;;;;;;;20.20;99.90;;;;;;5094573;28;19987;-81
2022/07/14 05:34:02;;;;;;;;;;;20.20;99.90;;;;;;5094628;28;20019;-82
2022/07/14 05:36:28;;;;;;;;;;;20.20;99.90;;;;;;5094228;28;19908;-81
2022/07/14 05:38:54;;;;;;;;;;;20.20;99.90;;;;;;5093963;28;19951;-81
2022/07/14 05:41:20;;;;;;;;;;;20.30;99.90;;;;;;5094129;28;20422;-80
2022/07/14 05:43:46;;;;;;;;;;;20.40;99.90;;;;;;5094351;28;19951;-79
2022/07/14 05:46:12;;;;;;;;;;;20.40;99.90;;;;;;5094353;28;20393;-81
2022/07/14 05:48:38;;;;;;;;;;;20.40;99.90;;;;;;5093659;28;19975;-80
2022/07/14 05:51:11;;;;;;;;;;;20.60;99.90;;;;;;5094421;28;19916;-81
2022/07/14 05:53:37;;;;;;;;;;;20.70;99.90;;;;;;5094082;28;19914;-82
2022/07/14 05:56:04;;;;;;;;;;;20.60;99.90;;;;;;5094211;28;20364;-81
2022/07/14 05:58:30;;;;;;;;;;;20.70;99.90;;;;;;5092962;28;19915;-80
2022/07/14 06:00:55;;;;;;;;;;;20.70;99.90;;;;;;5093714;28;19909;-81
2022/07/14 06:03:21;;;;;;;;;;;20.70;99.90;;;;;;5093944;28;19915;-81
2022/07/14 06:05:47;;;;;;;;;;;20.80;99.90;;;;;;5093814;28;19912;-80
2022/07/14 06:08:13;;;;;;;;;;;20.80;99.90;;;;;;5093580;28;19926;-80
2022/07/14 06:10:38;;;;;;;;;;;20.70;99.90;;;;;;5093760;28;19931;-80
2022/07/14 06:13:04;;;;;;;;;;;20.80;99.90;;;;;;5093758;28;19908;-80
2022/07/14 06:15:30;;;;;;;;;;;20.80;99.90;;;;;;5093767;28;19909;-80
2022/07/14 06:17:56;;;;;;;;;;;20.90;99.90;;;;;;5094176;28;19908;-81
2022/07/14 06:20:22;;;;;;;;;;;21.10;99.90;;;;;;5093759;28;19909;-81
2022/07/14 06:22:48;;;;;;;;;;;21.10;99.90;;;;;;5093771;28;19914;-80
2022/07/14 06:25:13;;;;;;;;;;;21.30;99.90;;;;;;5093679;28;20007;-80
2022/07/14 06:27:39;;;;;;;;;;;21.20;99.90;;;;;;5093185;28;20022;-81
2022/07/14 06:30:06;;;;;;;;;;;21.30;99.90;;;;;;5093571;28;20292;-79
2022/07/14 06:32:31;;;;;;;;;;;21.30;99.90;;;;;;5093560;28;20365;-81
2022/07/14 06:34:57;;;;;;;;;;;21.30;99.90;;;;;;5093391;28;19915;-81
2022/07/14 06:37:22;;;;;;;;;;;21.30;99.90;;;;;;5093272;28;19915;-80
2022/07/14 06:39:48;;;;;;;;;;;21.50;99.90;;;;;;5093370;28;19931;-81
2022/07/14 06:42:14;;;;;;;;;;;21.50;99.90;;;;;;5093027;28;20002;-81
2022/07/14 06:44:39;;;;;;;;;;;21.50;99.90;;;;;;5093370;28;19908;-82
2022/07/14 06:47:05;;;;;;;;;;;21.50;99.90;;;;;;5093191;28;20027;-80
2022/07/14 06:49:31;;;;;;;;;;;21.70;99.90;;;;;;5092878;28;19908;-82
2022/07/14 06:51:56;;;;;;;;;;;21.80;99.90;;;;;;5093229;28;19995;-80
2022/07/14 06:54:22;;;;;;;;;;;21.90;99.90;;;;;;5093331;28;19908;-80
2022/07/14 06:56:48;;;;;;;;;;;22.10;99.90;;;;;;5093177;28;20462;-81
2022/07/14 06:59:13;;;;;;;;;;;22.30;99.90;;;;;;5092749;28;19912;-81
2022/07/14 07:01:39;;;;;;;;;;;22.30;99.90;;;;;;5093289;28;19999;-81
2022/07/14 07:04:06;;;;;;;;;;;22.30;99.90;;;;;;5093208;28;19909;-80
2022/07/14 07:06:43;;;;;;;;;;;22.40;99.90;;;;;;5093189;28;19912;-81
2022/07/14 07:09:09;;;;;;;;;;;22.40;99.90;;;;;;5093726;28;19908;-80
2022/07/14 07:11:35;;;;;;;;;;;22.50;99.90;;;;;;5097203;28;20003;-82
2022/07/14 07:14:01;;;;;;;;;;;22.80;99.90;;;;;;5097247;28;19916;-81
2022/07/14 07:16:27;;;;;;;;;;;22.70;99.90;;;;;;5097244;28;19912;-81
2022/07/14 07:18:52;;;;;;;;;;;22.80;99.90;;;;;;5097378;28;20005;-80
2022/07/14 07:21:20;;;;;;;;;;;22.90;99.90;;;;;;5097103;28;20379;-81
2022/07/14 07:23:49;;;;;;;;;;;23.10;99.90;;;;;;5078769;28;19908;-82
2022/07/14 07:26:16;;;;;;;;;;;23.20;99.90;;;;;;5096931;28;19935;-80
2022/07/14 07:28:41;;;;;;;;;;;23.30;99.90;;;;;;5096607;28;19908;-80
2022/07/14 07:31:07;;;;;;;;;;;23.50;99.90;;;;;;5096911;28;19957;-79
2022/07/14 07:33:33;;;;;;;;;;;23.60;99.90;;;;;;5096925;28;20163;-83
2022/07/14 07:35:59;;;;;;;;;;;23.80;99.90;;;;;;5096584;28;19952;-81
2022/07/14 07:38:25;;;;;;;;;;;24.10;99.90;;;;;;5096437;28;19912;-82
2022/07/14 07:40:53;;;;;;;;;;;24.40;99.90;;;;;;5096532;28;19922;-82
2022/07/14 07:43:21;;;;;;;;;;;26.60;99.90;;;;;;5096765;28;20416;-82
2022/07/14 07:45:47;;;;;;;;;;;29.10;91.10;;;;;;5096596;28;19915;-82
2022/07/14 07:48:12;;;;;;;;;;;31.40;81.20;;;;;;5096099;28;19908;-81
2022/07/14 07:50:40;;;;;;;;;;;32.90;73.40;;;;;;5096635;28;19908;-81
2022/07/14 07:53:07;;;;;;;;;;;34.20;68.80;;;;;;5096349;28;20379;-80
2022/07/14 07:55:32;;;;;;;;;;;34.90;61.60;;;;;;5096467;28;19908;-79
2022/07/14 07:57:59;;;;;;;;;;;33.90;61.50;;;;;;5096150;28;20310;-81
2022/07/14 08:00:25;;;;;;;;;;;33.70;61.30;;;;;;5096145;28;19915;-80
2022/07/14 08:02:53;;;;;;;;;;;33.60;60.70;;;;;;5096300;28;19908;-79
2022/07/14 08:05:19;;;;;;;;;;;33.80;59.50;;;;;;5096189;28;19927;-81
2022/07/14 08:07:45;;;;;;;;;;;33.60;60.00;;;;;;5095886;28;19912;-80
2022/07/14 08:10:11;;;;;;;;;;;33.20;59.30;;;;;;5095941;28;20274;-80
2022/07/14 08:12:38;;;;;;;;;;;32.70;60.30;;;;;;5095896;28;19944;-80
2022/07/14 08:15:04;;;;;;;;;;;32.70;60.00;;;;;;5096031;28;19919;-81
2022/07/14 08:17:30;;;;;;;;;;;33.00;60.10;;;;;;5096682;28;19908;-80
2022/07/14 08:19:56;;;;;;;;;;;33.10;59.50;;;;;;5078766;28;19908;-80
2022/07/14 08:22:22;;;;;;;;;;;32.90;60.00;;;;;;5095246;28;19958;-81
2022/07/14 08:24:48;;;;;;;;;;;32.70;60.60;;;;;;5095659;28;20288;-81
2022/07/14 08:27:13;;;;;;;;;;;32.50;60.00;;;;;;5095662;28;19916;-80
2022/07/14 08:29:39;;;;;;;;;;;32.50;60.60;;;;;;5095262;28;19912;-81
2022/07/14 08:32:05;;;;;;;;;;;32.30;60.10;;;;;;5095747;28;19908;-81
2022/07/14 08:34:30;;;;;;;;;;;32.20;60.40;;;;;;5095616;28;19916;-80
2022/07/14 08:36:58;;;;;;;;;;;32.50;60.60;;;;;;5095346;28;19953;-80
2022/07/14 08:39:24;;;;;;;;;;;32.60;59.80;;;;;;5095013;28;19912;-79
2022/07/14 08:41:51;;;;;;;;;;;32.80;59.60;;;;;;5095412;28;20274;-82
2022/07/14 08:44:17;;;;;;;;;;;32.90;58.50;;;;;;5095411;28;20428;-79
2022/07/14 08:46:43;;;;;;;;;;;32.70;58.60;;;;;;5095370;28;19912;-79
2022/07/14 08:49:09;;;;;;;;;;;32.60;58.70;;;;;;5094953;28;19935;-80
2022/07/14 08:51:37;;;;;;;;;;;32.80;57.70;;;;;;5095335;28;20393;-81
2022/07/14 08:54:03;;;;;;;;;;;32.80;56.60;;;;;;5095376;28;19908;-81
2022/07/14 08:56:30;;;;;;;;;;;32.60;56.30;;;;;;5095216;28;19915;-81
2022/07/14 08:58:56;;;;;;;;;;;32.80;56.20;;;;;;5094819;28;20291;-80
2022/07/14 09:01:21;;;;;;;;;;;32.70;55.60;;;;;;5095110;28;19908;-80
2022/07/14 09:03:48;;;;;;;;;;;32.60;56.40;;;;;;5095121;28;20437;-81
2022/07/14 09:06:34;;;;;;;;;;;33.20;56.00;;;;;;5094939;28;20008;-80
2022/07/14 09:08:59;;;;;;;;;;;33.20;55.70;;;;;;5094515;28;19908;-79
2022/07/14 09:11:25;;;;;;;;;;;33.20;54.30;;;;;;5094790;28;19915;-81
2022/07/14 09:13:50;;;;;;;;;;;32.70;54.60;;;;;;5094864;28;19958;-80
2022/07/14 09:16:17;;;;;;;;;;;33.40;54.50;;;;;;5095201;28;19915;-82
2022/07/14 09:19:00;;;;;;;;;;;34.10;54.40;;;;;;5094974;28;20010;-80
2022/07/14 09:21:25;;;;;;;;;;;34.50;53.70;;;;;;5094755;28;20339;-79
2022/07/14 09:23:54;;;;;;;;;;;34.40;52.70;;;;;;5094541;28;19908;-81
2022/07/14 09:26:20;;;;;;;;;;;33.80;53.30;;;;;;5094634;28;20318;-81
2022/07/14 09:28:47;;;;;;;;;;;33.50;53.30;;;;;;5094297;28;19934;-80
2022/07/14 09:31:23;;;;;;;;;;;33.90;53.20;;;;;;5094542;28;20284;-81
2022/07/14 09:33:49;;;;;;;;;;;34.10;53.00;;;;;;5093572;28;20347;-81
2022/07/14 09:36:41;;;;;;;;;;;33.90;52.40;;;;;;5094302;28;19947;-81
2022/07/14 09:39:08;;;;;;;;;;;34.30;52.40;;;;;;5090900;28;19907;-81
2022/07/14 09:41:36;;;;;;;;;;;34.80;51.90;;;;;;5094128;28;19924;-81
2022/07/14 09:44:20;;;;;;;;;;;35.50;51.90;;;;;;5094435;28;20433;-81
2022/07/14 09:46:48;;;;;;;;;;;35.10;51.60;;;;;;5094218;28;19962;-82
2022/07/14 09:49:15;;;;;;;;;;;35.30;51.40;;;;;;5093846;28;19919;-81
2022/07/14 09:52:19;;;;;;;;;;;35.10;51.60;;;;;;5094205;28;19908;-81
2022/07/14 09:54:50;;;;;;;;;;;35.10;52.10;;;;;;5031784;28;19909;-81
2022/07/14 09:57:16;;;;;;;;;;;36.40;51.90;;;;;;5031560;28;19944;-80
2022/07/14 09:59:42;;;;;;;;;;;36.60;49.80;;;;;;5048653;28;20109;-81
2022/07/14 10:02:10;;;;;;;;;;;36.10;49.90;;;;;;5073739;28;20015;-80
2022/07/14 10:04:36;;;;;;;;;;;36.30;49.50;;;;;;5073630;28;19908;-82
2022/07/14 10:07:02;;;;;;;;;;;36.10;48.80;;;;;;5073584;28;19912;-81
2022/07/14 10:09:29;;;;;;;;;;;35.90;49.30;;;;;;5073207;28;19954;-81
2022/07/14 10:11:54;;;;;;;;;;;36.10;48.80;;;;;;5073360;28;19915;-81
2022/07/14 10:14:21;;;;;;;;;;;35.10;48.60;;;;;;5073559;28;19909;-81
2022/07/14 10:16:46;;;;;;;;;;;35.30;49.30;;;;;;5073513;28;19908;-81
2022/07/14 10:19:12;;;;;;;;;;;35.30;49.20;;;;;;5073710;28;19958;-81
2022/07/14 10:21:38;;;;;;;;;;;35.50;48.80;;;;;;5073390;28;20396;-80
2022/07/14 10:24:05;;;;;;;;;;;35.60;48.80;;;;;;5073181;28;20422;-81
2022/07/14 10:26:31;;;;;;;;;;;36.60;48.10;;;;;;5073330;28;20373;-80
2022/07/14 10:28:56;;;;;;;;;;;36.40;47.80;;;;;;5073272;28;20007;-81
2022/07/14 10:31:40;;;;;;;;;;;36.30;48.00;;;;;;5073353;28;19959;-81
2022/07/14 10:34:19;;;;;;;;;;;36.30;47.80;;;;;;5073278;28;19991;-81
2022/07/14 10:36:47;;;;;;;;;;;35.80;48.30;;;;;;5072928;28;20391;-81
2022/07/14 10:39:13;;;;;;;;;;;35.70;48.20;;;;;;5072879;28;19969;-81
2022/07/14 10:41:54;;;;;;;;;;;36.00;47.90;;;;;;5072899;28;20431;-81
2022/07/14 10:44:24;;;;;;;;;;;36.10;47.30;;;;;;5073118;28;19916;-81
2022/07/14 10:46:53;;;;;;;;;;;36.20;46.50;;;;;;5073011;28;19913;-80
2022/07/14 10:49:19;;;;;;;;;;;36.60;46.60;;;;;;5072794;28;19909;-81
2022/07/14 10:51:46;;;;;;;;;;;37.30;46.00;;;;;;5073104;28;19916;-81
2022/07/14 10:54:13;;;;;;;;;;;37.40;45.40;;;;;;5073074;28;19975;-81
2022/07/14 10:56:40;;;;;;;;;;;37.40;44.20;;;;;;5073094;28;20387;-81
2022/07/14 10:59:25;;;;;;;;;;;37.30;43.50;;;;;;5072709;28;20006;-81
2022/07/14 11:02:09;;;;;;;;;;;37.00;43.20;;;;;;5072952;28;20384;-80
2022/07/14 11:04:53;;;;;;;;;;;37.60;42.60;;;;;;5072986;28;19986;-82
2022/07/14 11:07:38;;;;;;;;;;;38.20;42.20;;;;;;5073110;28;19913;-81
2022/07/14 11:10:19;;;;;;;;;;;38.40;42.20;;;;;;5087198;28;19956;-80
2022/07/14 11:13:00;;;;;;;;;;;39.30;40.40;;;;;;5092833;28;19912;-81
2022/07/14 11:15:36;;;;;;;;;;;39.30;40.00;;;;;;5093244;28;20383;-81
2022/07/14 11:18:17;;;;;;;;;;;39.20;40.40;;;;;;5093018;28;19908;-81
2022/07/14 11:21:06;;;;;;;;;;;39.00;40.20;;;;;;5073084;28;20011;-81
2022/07/14 11:23:48;;;;;;;;;;;39.40;40.50;;;;;;5072889;28;19913;-80
2022/07/14 11:26:31;;;;;;;;;;;39.60;39.60;;;;;;5072717;28;19916;-81
2022/07/14 11:28:58;;;;;;;;;;;39.60;39.10;;;;;;5072406;28;20285;-81
2022/07/14 11:31:23;;;;;;;;;;;39.80;39.70;;;;;;5072783;28;19912;-82
2022/07/14 11:36:35;;;;;;;;;;;40.20;39.90;;;;;;5072805;28;19989;-81
2022/07/14 11:39:20;;;;;;;;;;;39.10;40.60;;;;;;5072270;28;20108;-81
2022/07/14 11:41:47;;;;;;;;;;;38.50;40.90;;;;;;5051161;28;20369;-81
2022/07/14 11:44:31;;;;;;;;;;;38.80;39.40;;;;;;5052576;28;20392;-82
2022/07/14 11:47:00;;;;;;;;;;;39.00;39.60;;;;;;5052384;28;19917;-82
2022/07/14 11:49:26;;;;;;;;;;;39.40;38.80;;;;;;5052224;28;19909;-81
2022/07/14 11:51:55;;;;;;;;;;;39.30;38.20;;;;;;5052622;28;19947;-81
2022/07/14 11:54:21;;;;;;;;;;;38.50;38.10;;;;;;5052540;28;19908;-81
2022/07/14 11:56:47;;;;;;;;;;;39.10;38.30;;;;;;5054381;28;19913;-81
2022/07/14 11:59:16;;;;;;;;;;;39.20;38.30;;;;;;5055773;28;20007;-80
2022/07/14 12:01:43;;;;;;;;;;;39.20;37.70;;;;;;5056214;28;20234;-81
2022/07/14 12:04:10;;;;;;;;;;;38.90;38.00;;;;;;5055998;28;19931;-81
2022/07/14 12:06:42;;;;;;;;;;;38.70;38.30;;;;;;5055990;28;19913;-81
2022/07/14 12:09:09;;;;;;;;;;;38.80;38.10;;;;;;5055616;28;19919;-80
2022/07/14 12:11:34;;;;;;;;;;;39.40;37.40;;;;;;5055809;28;20003;-81
2022/07/14 12:14:00;;;;;;;;;;;39.60;37.50;;;;;;5055847;28;20004;-81
2022/07/14 12:16:26;;;;;;;;;;;39.80;37.30;;;;;;5055842;28;19966;-81
2022/07/14 12:18:52;;;;;;;;;;;39.70;36.20;;;;;;5056041;28;19909;-81
2022/07/14 12:21:30;;;;;;;;;;;39.40;36.30;;;;;;5055707;28;19912;-81
2022/07/14 12:23:56;;;;;;;;;;;39.10;36.00;;;;;;5055598;28;19962;-81
2022/07/14 12:26:23;;;;;;;;;;;38.50;36.10;;;;;;5055551;28;20361;-81
2022/07/14 12:28:50;;;;;;;;;;;38.70;37.40;;;;;;5055379;28;20288;-81
2022/07/14 12:31:16;;;;;;;;;;;38.90;35.20;;;;;;5055524;28;19924;-80
2022/07/14 12:33:42;;;;;;;;;;;38.50;35.60;;;;;;5055629;28;19909;-81
2022/07/14 12:36:12;;;;;;;;;;;39.10;35.80;;;;;;5055295;28;19992;-81
2022/07/14 12:38:39;;;;;;;;;;;38.10;37.10;;;;;;5055429;28;19909;-81
2022/07/14 12:41:05;;;;;;;;;;;38.20;37.80;;;;;;5067269;28;20482;-81
2022/07/14 12:43:32;;;;;;;;;;;38.10;36.80;;;;;;5095861;28;20372;-80
2022/07/14 12:46:05;;;;;;;;;;;38.60;35.80;;;;;;5095477;28;19915;-80
2022/07/14 12:48:31;;;;;;;;;;;37.90;36.20;;;;;;5095363;28;20303;-81
2022/07/14 12:51:15;;;;;;;;;;;37.90;36.70;;;;;;5094926;28;19957;-81
2022/07/14 12:53:54;;;;;;;;;;;37.80;37.50;;;;;;5095411;28;19908;-80
2022/07/14 12:56:22;;;;;;;;;;;38.20;37.50;;;;;;5095270;28;19908;-80
2022/07/14 12:58:48;;;;;;;;;;;39.00;37.50;;;;;;5095130;28;19908;-81
2022/07/14 13:01:13;;;;;;;;;;;39.00;37.70;;;;;;5095249;28;19908;-81
2022/07/14 13:03:39;;;;;;;;;;;39.00;37.70;;;;;;5095208;28;19957;-81
2022/07/14 13:06:05;;;;;;;;;;;39.20;37.50;;;;;;5095100;28;20284;-81
2022/07/14 13:08:35;;;;;;;;;;;39.70;37.50;;;;;;5094875;28;20005;-81
2022/07/14 13:11:01;;;;;;;;;;;39.40;37.40;;;;;;5094618;28;19945;-80
2022/07/14 13:13:29;;;;;;;;;;;39.00;37.10;;;;;;5094933;28;19908;-81
2022/07/14 13:16:12;;;;;;;;;;;39.30;37.80;;;;;;5094946;28;19953;-81
2022/07/14 13:18:58;;;;;;;;;;;39.70;37.90;;;;;;5095417;28;19908;-80
2022/07/14 13:21:43;;;;;;;;;;;39.40;36.80;;;;;;5094520;28;19922;-80
2022/07/14 13:24:13;;;;;;;;;;;38.80;36.90;;;;;;5094514;28;19961;-81
2022/07/14 13:26:39;;;;;;;;;;;38.90;36.60;;;;;;5094636;28;20352;-81
2022/07/14 13:29:04;;;;;;;;;;;38.50;36.40;;;;;;5094505;28;19940;-81
2022/07/14 13:31:30;;;;;;;;;;;38.20;36.20;;;;;;5094573;28;19987;-81
2022/07/14 13:33:58;;;;;;;;;;;38.20;37.00;;;;;;5094640;28;20375;-81
2022/07/14 13:36:24;;;;;;;;;;;38.50;36.40;;;;;;5094298;28;19912;-81
2022/07/14 13:38:50;;;;;;;;;;;38.60;36.30;;;;;;5094529;28;19930;-80
2022/07/14 13:41:16;;;;;;;;;;;38.60;36.80;;;;;;5094172;28;20392;-81
2022/07/14 13:43:42;;;;;;;;;;;39.00;36.00;;;;;;5094371;28;19915;-81
2022/07/14 13:46:09;;;;;;;;;;;39.10;35.10;;;;;;5094303;28;20280;-81
2022/07/14 13:48:36;;;;;;;;;;;39.10;35.60;;;;;;5094124;28;19919;-80
2022/07/14 13:53:46;;;;;;;;;;;38.80;36.10;;;;;;5093962;28;19915;-81
2022/07/14 13:56:12;;;;;;;;;;;39.10;34.80;;;;;;5094183;28;19908;-81
2022/07/14 13:58:38;;;;;;;;;;;39.00;35.70;;;;;;5094077;28;19962;-81
2022/07/14 14:01:03;;;;;;;;;;;40.00;36.30;;;;;;5093610;28;19908;-81
2022/07/14 14:03:29;;;;;;;;;;;41.70;35.60;;;;;;5094017;28;20398;-81
2022/07/14 14:06:02;;;;;;;;;;;41.30;34.50;;;;;;5093945;28;19923;-82
2022/07/14 14:08:29;;;;;;;;;;;40.30;34.90;;;;;;5094011;28;19916;-80
2022/07/14 14:10:55;;;;;;;;;;;39.40;34.50;;;;;;5093306;28;20349;-81
2022/07/14 14:13:22;;;;;;;;;;;38.80;34.80;;;;;;5093862;28;19916;-81
2022/07/14 14:15:49;;;;;;;;;;;38.60;34.70;;;;;;5093778;28;20003;-81
2022/07/14 14:18:15;;;;;;;;;;;38.20;36.20;;;;;;5093632;28;19998;-81
2022/07/14 14:20:40;;;;;;;;;;;38.80;36.40;;;;;;5093523;28;19908;-80
2022/07/14 14:23:06;;;;;;;;;;;38.80;35.50;;;;;;5093662;28;19908;-81
2022/07/14 14:25:33;;;;;;;;;;;39.00;36.00;;;;;;5093642;28;19908;-81
2022/07/14 14:27:59;;;;;;;;;;;39.00;35.30;;;;;;5093606;28;19919;-81
2022/07/14 14:30:25;;;;;;;;;;;39.10;35.50;;;;;;5093200;28;20291;-80